createdAt,value
2022-11-16T00:02:12.404Z,100.00
2022-11-16T00:04:40.644Z,100.00
2022-11-16T00:07:11.203Z,100.00
2022-11-16T00:09:39.342Z,100.00
2022-11-16T00:12:11.022Z,100.00
2022-11-16T00:14:39.017Z,100.00
2022-11-16T00:17:07.447Z,100.00
2022-11-16T00:19:35.506Z,100.00
2022-11-16T00:22:03.514Z,100.00
2022-11-16T00:24:33.092Z,100.00
2022-11-16T00:27:01.127Z,100.00
2022-11-16T00:29:29.257Z,100.00
2022-11-16T00:31:57.348Z,100.00
2022-11-16T00:34:26.110Z,100.00
2022-11-16T00:36:54.187Z,100.00
2022-11-16T00:39:22.345Z,100.00
2022-11-16T00:41:51.839Z,100.00
2022-11-16T00:44:19.958Z,100.00
2022-11-16T00:46:48.059Z,100.00
2022-11-16T00:49:16.351Z,100.00
2022-11-16T00:51:44.378Z,100.00
2022-11-16T00:54:12.471Z,100.00
2022-11-16T00:56:40.505Z,100.00
2022-11-16T00:59:09.924Z,100.00
2022-11-16T01:01:38.213Z,100.00
2022-11-16T01:04:06.479Z,100.00
2022-11-16T01:06:34.598Z,100.00
2022-11-16T01:09:02.982Z,100.00
2022-11-16T01:11:48.375Z,100.00
2022-11-16T01:14:17.806Z,100.00
2022-11-16T01:16:45.945Z,100.00
2022-11-16T01:19:14.172Z,100.00
2022-11-16T01:21:42.176Z,100.00
2022-11-16T01:24:10.475Z,100.00
2022-11-16T01:26:38.532Z,100.00
2022-11-16T01:29:06.616Z,100.00
2022-11-16T01:31:36.075Z,100.00
2022-11-16T01:34:04.293Z,100.00
2022-11-16T01:36:32.286Z,100.00
2022-11-16T01:39:00.317Z,100.00
2022-11-16T01:41:28.480Z,100.00
2022-11-16T01:43:59.267Z,100.00
2022-11-16T01:46:28.459Z,100.00
2022-11-16T01:49:03.159Z,100.00
2022-11-16T01:51:32.549Z,100.00
2022-11-16T01:54:02.693Z,100.00
2022-11-16T01:56:34.167Z,100.00
2022-11-16T01:59:02.256Z,100.00
2022-11-16T02:01:30.396Z,100.00
2022-11-16T02:04:00.011Z,100.00
2022-11-16T02:06:43.304Z,100.00
2022-11-16T02:09:53.385Z,100.00
2022-11-16T02:12:50.213Z,100.00
2022-11-16T02:15:25.980Z,100.00
2022-11-16T02:18:05.226Z,100.00
2022-11-16T02:20:47.260Z,100.00
2022-11-16T02:23:52.775Z,100.00
2022-11-16T02:26:40.732Z,100.00
2022-11-16T02:29:22.074Z,100.00
2022-11-16T02:31:55.541Z,100.00
2022-11-16T02:34:25.498Z,100.00
2022-11-16T02:36:56.850Z,100.00
2022-11-16T02:39:29.438Z,100.00
2022-11-16T02:42:00.804Z,100.00
2022-11-16T02:44:34.394Z,100.00
2022-11-16T02:47:06.303Z,100.00
2022-11-16T02:49:38.097Z,100.00
2022-11-16T02:52:06.597Z,100.00
2022-11-16T02:54:34.653Z,100.00
2022-11-16T02:57:30.165Z,100.00
2022-11-16T03:00:01.796Z,100.00
2022-11-16T03:02:37.097Z,100.00
2022-11-16T03:05:10.783Z,100.00
2022-11-16T03:07:45.804Z,100.00
2022-11-16T03:10:34.925Z,100.00
2022-11-16T03:13:03.669Z,100.00
2022-11-16T03:15:37.586Z,100.00
2022-11-16T03:18:08.485Z,100.00
2022-11-16T03:20:40.004Z,100.00
2022-11-16T03:23:11.465Z,100.00
2022-11-16T03:25:45.269Z,100.00
2022-11-16T03:28:18.657Z,100.00
2022-11-16T03:30:52.771Z,100.00
2022-11-16T03:33:25.244Z,100.00
2022-11-16T03:36:00.410Z,100.00
2022-11-16T03:38:29.758Z,100.00
2022-11-16T03:41:01.116Z,100.00
2022-11-16T03:43:29.492Z,100.00
2022-11-16T03:45:59.146Z,100.00
2022-11-16T03:48:27.413Z,100.00
2022-11-16T03:50:55.423Z,100.00
2022-11-16T03:53:23.501Z,100.00
2022-11-16T03:55:51.476Z,100.00
2022-11-16T03:58:19.693Z,100.00
2022-11-16T04:00:47.838Z,100.00
2022-11-16T04:03:17.361Z,100.00
2022-11-16T04:06:03.040Z,100.00
2022-11-16T04:08:48.546Z,100.00
2022-11-16T04:11:37.950Z,100.00
2022-11-16T04:14:23.744Z,100.00
2022-11-16T04:17:09.153Z,100.00
2022-11-16T04:20:10.196Z,100.00
2022-11-16T04:23:01.018Z,100.00
2022-11-16T04:25:33.521Z,100.00
2022-11-16T04:28:16.555Z,100.00
2022-11-16T04:31:04.454Z,100.00
2022-11-16T04:33:50.525Z,100.00
2022-11-16T04:36:48.981Z,100.00
2022-11-16T04:39:17.028Z,100.00
2022-11-16T04:42:02.431Z,100.00
2022-11-16T04:44:50.505Z,100.00
2022-11-16T04:47:17.524Z,100.00
2022-11-16T04:49:45.584Z,100.00
2022-11-16T04:52:15.016Z,100.00
2022-11-16T04:54:43.067Z,100.00
2022-11-16T04:57:11.088Z,100.00
2022-11-16T04:59:39.077Z,100.00
2022-11-16T05:02:10.003Z,100.00
2022-11-16T05:04:38.789Z,100.00
2022-11-16T05:07:10.978Z,100.00
2022-11-16T05:09:43.119Z,100.00
2022-11-16T05:12:12.001Z,100.00
2022-11-16T05:14:39.983Z,100.00
2022-11-16T05:17:08.141Z,100.00
2022-11-16T05:19:53.833Z,100.00
2022-11-16T05:22:22.042Z,100.00
2022-11-16T05:24:51.544Z,100.00
2022-11-16T05:27:21.270Z,100.00
2022-11-16T05:29:50.192Z,100.00
2022-11-16T05:32:19.289Z,100.00
2022-11-16T05:34:49.448Z,100.00
2022-11-16T05:37:18.323Z,100.00
2022-11-16T05:39:46.469Z,100.00
2022-11-16T05:42:15.936Z,100.00
2022-11-16T05:44:44.011Z,100.00
2022-11-16T05:47:12.031Z,100.00
2022-11-16T05:49:40.152Z,100.00
2022-11-16T05:52:08.210Z,100.00
2022-11-16T05:54:36.323Z,100.00
2022-11-16T05:57:04.668Z,100.00
2022-11-16T05:59:34.125Z,100.00
2022-11-16T06:02:04.034Z,100.00
2022-11-16T06:04:32.119Z,100.00
2022-11-16T06:07:00.196Z,100.00
2022-11-16T06:09:28.319Z,100.00
2022-11-16T06:11:56.393Z,100.00
2022-11-16T06:14:24.662Z,100.00
2022-11-16T06:16:54.079Z,100.00
2022-11-16T06:19:22.245Z,100.00
2022-11-16T06:21:50.253Z,100.00
2022-11-16T06:24:18.550Z,100.00
2022-11-16T06:26:47.244Z,100.00
2022-11-16T06:29:15.339Z,100.00
2022-11-16T06:31:43.379Z,100.00
2022-11-16T06:34:12.745Z,100.00
2022-11-16T06:36:40.759Z,100.00
2022-11-16T06:39:08.863Z,100.00
2022-11-16T06:41:41.217Z,100.00
2022-11-16T06:44:09.749Z,100.00
2022-11-16T06:46:37.766Z,100.00
2022-11-16T06:49:05.892Z,100.00
2022-11-16T06:51:35.307Z,100.00
2022-11-16T06:54:03.404Z,100.00
2022-11-16T06:56:31.436Z,100.00
2022-11-16T06:58:59.419Z,100.00
2022-11-16T07:01:27.778Z,100.00
2022-11-16T07:03:55.842Z,100.00
2022-11-16T07:06:23.915Z,100.00
2022-11-16T07:08:53.474Z,100.00
2022-11-16T07:11:21.519Z,100.00
2022-11-16T07:13:49.623Z,100.00
2022-11-16T07:16:17.749Z,100.00
2022-11-16T07:18:45.758Z,100.00
2022-11-16T07:21:15.781Z,100.00
2022-11-16T07:23:44.183Z,100.00
2022-11-16T07:26:13.672Z,100.00
2022-11-16T07:28:47.767Z,100.00
2022-11-16T07:31:16.749Z,100.00
2022-11-16T07:33:44.814Z,100.00
2022-11-16T07:36:14.930Z,100.00
2022-11-16T07:38:43.144Z,100.00
2022-11-16T07:41:14.470Z,100.00
2022-11-16T07:43:44.374Z,100.00
2022-11-16T07:49:09.816Z,100.00
2022-11-16T07:51:39.406Z,100.00
2022-11-16T07:54:07.508Z,100.00
2022-11-16T07:56:38.161Z,100.00
2022-11-16T07:59:06.754Z,100.00
2022-11-16T08:01:35.150Z,100.00
2022-11-16T08:04:03.306Z,100.00
2022-11-16T08:06:32.971Z,100.00
2022-11-16T08:09:00.982Z,100.00
2022-11-16T08:11:29.075Z,100.00
2022-11-16T08:13:58.496Z,100.00
2022-11-16T08:16:26.502Z,100.00
2022-11-16T08:18:54.584Z,100.00
2022-11-16T08:21:22.654Z,100.00
2022-11-16T08:23:55.211Z,100.00
2022-11-16T08:26:26.092Z,100.00
2022-11-16T08:28:56.585Z,100.00
2022-11-16T08:31:28.089Z,100.00
2022-11-16T08:33:56.672Z,100.00
2022-11-16T08:36:24.936Z,100.00
2022-11-16T08:38:53.956Z,100.00
2022-11-16T08:41:22.536Z,100.00
2022-11-16T08:43:53.431Z,100.00
2022-11-16T08:46:22.084Z,100.00
2022-11-16T08:48:55.657Z,100.00
2022-11-16T08:51:24.185Z,100.00
2022-11-16T08:53:57.006Z,100.00
2022-11-16T08:56:26.323Z,100.00
2022-11-16T08:58:58.381Z,100.00
2022-11-16T09:01:29.448Z,100.00
2022-11-16T09:03:59.226Z,100.00
2022-11-16T09:06:28.966Z,100.00
2022-11-16T09:08:57.154Z,100.00
2022-11-16T09:11:26.547Z,100.00
2022-11-16T09:13:56.628Z,100.00
2022-11-16T09:16:25.595Z,100.00
2022-11-16T09:18:53.681Z,100.00
2022-11-16T09:21:25.197Z,100.00
2022-11-16T09:23:54.891Z,100.00
2022-11-16T09:26:24.042Z,100.00
2022-11-16T09:28:56.944Z,100.00
2022-11-16T09:31:27.476Z,100.00
2022-11-16T09:33:58.283Z,100.00
2022-11-16T09:36:29.482Z,100.00
2022-11-16T09:42:01.267Z,100.00
2022-11-16T09:44:50.279Z,100.00
2022-11-16T09:47:22.129Z,100.00
2022-11-16T09:49:58.135Z,99.63
2022-11-16T09:52:35.098Z,97.42
2022-11-16T09:55:16.567Z,95.76
2022-11-16T09:57:45.452Z,94.55
2022-11-16T10:00:19.635Z,95.90
2022-11-16T10:02:53.146Z,95.34
2022-11-16T10:05:23.762Z,94.84
2022-11-16T10:08:00.256Z,93.82
2022-11-16T10:10:36.075Z,94.49
2022-11-16T10:13:16.026Z,95.18
2022-11-16T10:16:00.354Z,96.80
2022-11-16T10:18:46.219Z,98.65
2022-11-16T10:21:39.723Z,99.30
2022-11-16T10:24:34.357Z,99.16
2022-11-16T10:27:25.742Z,99.07
2022-11-16T10:30:03.460Z,99.81
2022-11-16T10:32:33.252Z,100.00
2022-11-16T10:35:09.202Z,100.00
2022-11-16T10:37:40.636Z,100.00
2022-11-16T10:40:23.288Z,100.00
2022-11-16T10:43:06.701Z,100.00
2022-11-16T10:45:40.320Z,100.00
2022-11-16T10:48:30.805Z,100.00
2022-11-16T10:50:59.028Z,100.00
2022-11-16T10:53:29.345Z,100.00
2022-11-16T10:56:12.719Z,100.00
2022-11-16T10:58:52.334Z,100.00
2022-11-16T11:01:36.462Z,100.00
2022-11-16T11:04:26.283Z,100.00
2022-11-16T11:06:56.033Z,100.00
2022-11-16T11:09:31.507Z,100.00
2022-11-16T11:12:20.775Z,100.00
2022-11-16T11:15:05.795Z,100.00
2022-11-16T11:17:36.291Z,100.00
2022-11-16T11:20:07.407Z,100.00
2022-11-16T11:22:43.022Z,100.00
2022-11-16T11:25:21.694Z,100.00
2022-11-16T11:27:52.049Z,100.00
2022-11-16T11:30:21.700Z,100.00
2022-11-16T11:32:50.268Z,100.00
2022-11-16T11:35:26.312Z,100.00
2022-11-16T11:37:57.719Z,100.00
2022-11-16T11:40:27.266Z,100.00
2022-11-16T11:43:07.235Z,100.00
2022-11-16T11:45:44.231Z,100.00
2022-11-16T11:48:26.386Z,100.00
2022-11-16T11:50:56.282Z,100.00
2022-11-16T11:53:42.063Z,100.00
2022-11-16T11:56:13.033Z,100.00
2022-11-16T11:58:43.727Z,100.00
2022-11-16T12:01:50.337Z,100.00
2022-11-16T12:05:08.485Z,100.00
2022-11-16T12:07:58.557Z,100.00
2022-11-16T12:10:32.912Z,100.00
2022-11-16T12:13:22.697Z,100.00
2022-11-16T12:16:02.811Z,100.00
2022-11-16T12:18:43.621Z,100.00
2022-11-16T12:21:14.601Z,100.00
2022-11-16T12:23:59.361Z,100.00
2022-11-16T12:26:38.394Z,100.00
2022-11-16T12:29:22.181Z,100.00
2022-11-16T12:32:03.700Z,100.00
2022-11-16T12:34:45.315Z,100.00
2022-11-16T12:37:21.686Z,100.00
2022-11-16T12:40:09.601Z,100.00
2022-11-16T12:42:47.167Z,100.00
2022-11-16T12:45:29.001Z,100.00
2022-11-16T12:48:19.440Z,100.00
2022-11-16T12:50:56.872Z,100.00
2022-11-16T12:53:50.637Z,100.00
2022-11-16T12:56:27.134Z,100.00
2022-11-16T12:59:13.349Z,100.00
2022-11-16T13:01:46.090Z,100.00
2022-11-16T13:04:19.813Z,100.00
2022-11-16T13:06:53.617Z,100.00
2022-11-16T13:09:25.417Z,100.00
2022-11-16T13:11:57.555Z,100.00
2022-11-16T13:14:31.070Z,100.00
2022-11-16T13:17:02.428Z,100.00
2022-11-16T13:19:32.464Z,100.00
2022-11-16T13:22:05.761Z,100.00
2022-11-16T13:24:51.240Z,100.00
2022-11-16T13:27:33.099Z,100.00
2022-11-16T13:30:06.793Z,100.00
2022-11-16T13:32:50.442Z,100.00
2022-11-16T13:35:21.037Z,100.00
2022-11-16T13:37:49.914Z,100.00
2022-11-16T13:40:29.638Z,100.00
2022-11-16T13:43:06.028Z,100.00
2022-11-16T13:45:37.880Z,100.00
2022-11-16T13:48:18.155Z,100.00
2022-11-16T13:50:53.075Z,100.00
2022-11-16T13:56:16.056Z,100.00
2022-11-16T13:58:48.427Z,100.00
2022-11-16T14:01:18.058Z,100.00
2022-11-16T14:03:47.334Z,100.00
2022-11-16T14:07:00.101Z,100.00
2022-11-16T14:09:45.735Z,100.00
2022-11-16T14:12:56.784Z,100.00
2022-11-16T14:15:33.679Z,100.00
2022-11-16T14:18:21.951Z,100.00
2022-11-16T14:20:58.165Z,100.00
2022-11-16T14:23:58.346Z,100.00
2022-11-16T14:26:37.921Z,100.00
2022-11-16T14:29:20.189Z,100.00
2022-11-16T14:31:52.319Z,100.00
2022-11-16T14:34:23.501Z,100.00
2022-11-16T14:36:52.232Z,100.00
2022-11-16T14:39:37.348Z,100.00
2022-11-16T14:42:08.516Z,100.00
2022-11-16T14:44:40.021Z,100.00
2022-11-16T14:47:21.801Z,100.00
2022-11-16T14:49:50.332Z,100.00
2022-11-16T14:52:20.244Z,100.00
2022-11-16T14:54:56.777Z,100.00
2022-11-16T14:57:25.415Z,100.00
2022-11-16T15:00:09.246Z,100.00
2022-11-16T15:02:37.952Z,100.00
2022-11-16T15:05:07.183Z,100.00
2022-11-16T15:07:35.215Z,100.00
2022-11-16T15:10:05.352Z,100.00
2022-11-16T15:12:44.108Z,100.00
2022-11-16T15:15:17.306Z,100.00
2022-11-16T15:17:47.266Z,100.00
2022-11-16T15:20:20.412Z,100.00
2022-11-16T15:22:52.063Z,100.00
2022-11-16T15:25:32.612Z,100.00
2022-11-16T15:28:02.561Z,100.00
2022-11-16T15:30:34.375Z,100.00
2022-11-16T15:33:04.925Z,100.00
2022-11-16T15:35:35.033Z,100.00
2022-11-16T15:38:04.897Z,100.00
2022-11-16T15:40:35.427Z,100.00
2022-11-16T15:43:07.056Z,100.00
2022-11-16T15:45:35.815Z,100.00
2022-11-16T15:48:05.002Z,100.00
2022-11-16T15:50:33.186Z,100.00
2022-11-16T15:53:01.230Z,100.00
2022-11-16T15:55:36.874Z,100.00
2022-11-16T15:58:08.581Z,100.00
2022-11-16T16:00:38.334Z,100.00
2022-11-16T16:03:17.554Z,100.00
2022-11-16T16:05:45.704Z,100.00
2022-11-16T16:08:34.880Z,100.00
2022-11-16T16:11:10.434Z,100.00
2022-11-16T16:13:40.592Z,100.00
2022-11-16T16:16:27.409Z,100.00
2022-11-16T16:18:58.223Z,100.00
2022-11-16T16:21:29.382Z,100.00
2022-11-16T16:24:00.614Z,100.00
2022-11-16T16:26:30.105Z,100.00
2022-11-16T16:28:58.150Z,100.00
2022-11-16T16:31:29.210Z,100.00
2022-11-16T16:33:59.535Z,100.00
2022-11-16T16:36:27.653Z,100.00
2022-11-16T16:38:57.021Z,100.00
2022-11-16T16:41:25.158Z,100.00
2022-11-16T16:43:54.783Z,100.00
2022-11-16T16:46:22.878Z,100.00
2022-11-16T16:48:50.948Z,100.00
2022-11-16T16:51:18.998Z,100.00
2022-11-16T16:53:46.995Z,100.00
2022-11-16T16:56:16.623Z,100.00
2022-11-16T16:58:44.674Z,100.00
2022-11-16T17:01:14.492Z,100.00
2022-11-16T17:03:42.646Z,100.00
2022-11-16T17:06:10.788Z,100.00
2022-11-16T17:08:39.399Z,100.00
2022-11-16T17:11:07.526Z,100.00
2022-11-16T17:13:35.981Z,100.00
2022-11-16T17:16:06.294Z,100.00
2022-11-16T17:18:35.742Z,100.00
2022-11-16T17:21:08.291Z,100.00
2022-11-16T17:23:37.652Z,100.00
2022-11-16T17:26:06.666Z,100.00
2022-11-16T17:28:35.406Z,100.00
2022-11-16T17:31:04.151Z,100.00
2022-11-16T17:33:36.058Z,100.00
2022-11-16T17:36:04.916Z,100.00
2022-11-16T17:38:33.249Z,100.00
2022-11-16T17:41:06.660Z,100.00
2022-11-16T17:43:35.601Z,100.00
2022-11-16T17:46:08.536Z,100.00
2022-11-16T17:48:38.993Z,100.00
2022-11-16T17:51:08.786Z,100.00
2022-11-16T17:53:37.884Z,100.00
2022-11-16T17:56:07.748Z,100.00
2022-11-16T17:58:36.098Z,100.00
2022-11-16T18:01:04.526Z,100.00
2022-11-16T18:03:33.283Z,100.00
2022-11-16T18:06:08.572Z,100.00
2022-11-16T18:08:37.126Z,100.00
2022-11-16T18:11:06.820Z,100.00
2022-11-16T18:13:35.564Z,100.00
2022-11-16T18:16:05.753Z,100.00
2022-11-16T18:18:34.084Z,100.00
2022-11-16T18:21:02.554Z,100.00
2022-11-16T18:23:32.669Z,100.00
2022-11-16T18:26:01.008Z,100.00
2022-11-16T18:28:29.090Z,100.00
2022-11-16T18:31:04.178Z,100.00
2022-11-16T18:33:32.750Z,100.00
2022-11-16T18:36:01.166Z,100.00
2022-11-16T18:38:29.200Z,100.00
2022-11-16T18:41:15.422Z,100.00
2022-11-16T18:43:48.517Z,100.00
2022-11-16T18:46:16.608Z,100.00
2022-11-16T18:48:44.615Z,100.00
2022-11-16T18:51:12.769Z,100.00
2022-11-16T18:53:40.854Z,100.00
2022-11-16T18:56:11.867Z,100.00
2022-11-16T18:58:55.686Z,100.00
2022-11-16T19:01:25.809Z,100.00
2022-11-16T19:03:54.732Z,100.00
2022-11-16T19:06:23.723Z,100.00
2022-11-16T19:08:56.451Z,100.00
2022-11-16T19:11:27.981Z,100.00
2022-11-16T19:14:00.100Z,100.00
2022-11-16T19:16:28.253Z,100.00
2022-11-16T19:18:56.758Z,100.00
2022-11-16T19:21:25.225Z,100.00
2022-11-16T19:23:54.799Z,100.00
2022-11-16T19:26:26.026Z,100.00
2022-11-16T19:28:54.997Z,100.00
2022-11-16T19:31:24.758Z,100.00
2022-11-16T19:33:56.135Z,100.00
2022-11-16T19:36:24.703Z,100.00
2022-11-16T19:38:52.955Z,100.00
2022-11-16T19:41:22.606Z,100.00
2022-11-16T19:43:57.194Z,100.00
2022-11-16T19:46:25.793Z,100.00
2022-11-16T19:48:54.592Z,100.00
2022-11-16T19:51:24.374Z,100.00
2022-11-16T19:53:52.584Z,100.00
2022-11-16T19:56:22.911Z,100.00
2022-11-16T19:58:52.908Z,100.00
2022-11-16T20:01:23.152Z,100.00
2022-11-16T20:03:51.392Z,100.00
2022-11-16T20:06:21.148Z,100.00
2022-11-16T20:08:50.565Z,100.00
2022-11-16T20:11:20.853Z,100.00
2022-11-16T20:13:49.356Z,100.00
2022-11-16T20:16:20.541Z,100.00
2022-11-16T20:18:49.298Z,100.00
2022-11-16T20:21:22.410Z,100.00
2022-11-16T20:23:51.633Z,100.00
2022-11-16T20:26:20.835Z,100.00
2022-11-16T20:28:51.064Z,100.00
2022-11-16T20:31:21.939Z,100.00
2022-11-16T20:33:54.413Z,100.00
2022-11-16T20:36:23.785Z,100.00
2022-11-16T20:38:52.486Z,100.00
2022-11-16T20:41:22.449Z,100.00
2022-11-16T20:43:52.492Z,100.00
2022-11-16T20:46:23.768Z,100.00
2022-11-16T20:48:52.086Z,100.00
2022-11-16T20:51:21.413Z,100.00
2022-11-16T20:53:50.924Z,100.00
2022-11-16T20:56:20.239Z,100.00
2022-11-16T20:58:48.559Z,100.00
2022-11-16T21:01:18.752Z,100.00
2022-11-16T21:03:48.193Z,100.00
2022-11-16T21:06:16.641Z,100.00
2022-11-16T21:08:44.895Z,100.00
2022-11-16T21:11:13.493Z,100.00
2022-11-16T21:13:58.864Z,100.00
2022-11-16T21:16:26.667Z,100.00
2022-11-16T21:18:56.240Z,100.00
2022-11-16T21:21:25.341Z,100.00
2022-11-16T21:23:55.006Z,100.00
2022-11-16T21:26:24.764Z,100.00
2022-11-16T21:28:52.906Z,100.00
2022-11-16T21:31:23.170Z,100.00
2022-11-16T21:33:51.213Z,100.00
2022-11-16T21:36:22.373Z,100.00
2022-11-16T21:38:50.801Z,100.00
2022-11-16T21:41:20.473Z,100.00
2022-11-16T21:43:48.821Z,100.00
2022-11-16T21:46:18.667Z,100.00
2022-11-16T21:48:48.118Z,100.00
2022-11-16T21:51:18.359Z,100.00
2022-11-16T21:53:50.657Z,100.00
2022-11-16T21:56:20.141Z,100.00
2022-11-16T21:58:49.982Z,100.00
2022-11-16T22:01:18.193Z,100.00
2022-11-16T22:03:46.596Z,100.00
2022-11-16T22:06:34.584Z,100.00
2022-11-16T22:09:04.137Z,100.00
2022-11-16T22:11:32.137Z,100.00
2022-11-16T22:14:00.282Z,100.00
2022-11-16T22:16:28.362Z,100.00
2022-11-16T22:18:56.381Z,100.00
2022-11-16T22:21:24.482Z,100.00
2022-11-16T22:23:52.537Z,100.00
2022-11-16T22:26:22.079Z,100.00
2022-11-16T22:28:50.081Z,100.00
2022-11-16T22:31:18.120Z,100.00
2022-11-16T22:33:46.115Z,100.00
2022-11-16T22:36:15.081Z,100.00
2022-11-16T22:38:43.060Z,100.00
2022-11-16T22:41:11.233Z,100.00
2022-11-16T22:43:40.715Z,100.00
2022-11-16T22:46:09.033Z,100.00
2022-11-16T22:48:38.912Z,100.00
2022-11-16T22:51:08.985Z,100.00
2022-11-16T22:53:37.267Z,100.00
2022-11-16T22:56:07.679Z,100.00
2022-11-16T22:58:36.072Z,100.00
2022-11-16T23:01:07.496Z,100.00
2022-11-16T23:03:36.004Z,100.00
2022-11-16T23:06:05.425Z,100.00
2022-11-16T23:08:34.347Z,100.00
2022-11-16T23:11:20.537Z,100.00
2022-11-16T23:14:06.375Z,100.00
2022-11-16T23:16:36.267Z,100.00
2022-11-16T23:19:24.368Z,100.00
2022-11-16T23:22:09.552Z,100.00
2022-11-16T23:24:55.047Z,100.00
2022-11-16T23:27:31.944Z,100.00
2022-11-16T23:30:01.146Z,100.00
2022-11-16T23:32:31.048Z,100.00
2022-11-16T23:34:59.263Z,100.00
2022-11-16T23:37:27.363Z,100.00
2022-11-16T23:39:55.392Z,100.00
2022-11-16T23:42:40.602Z,100.00
2022-11-16T23:45:09.029Z,100.00
2022-11-16T23:47:38.401Z,100.00
2022-11-16T23:50:06.997Z,100.00
2022-11-16T23:52:35.042Z,100.00
2022-11-16T23:55:03.046Z,100.00
2022-11-16T23:57:31.142Z,100.00
2022-11-16T23:59:59.104Z,100.00
